createdAt,value
2019-05-07T00:01:33.915Z,25.83
2019-05-07T00:06:35.118Z,27.17
2019-05-07T00:11:36.763Z,32.07
2019-05-07T00:16:42.021Z,23.53
2019-05-07T00:21:43.160Z,24.87
2019-05-07T00:26:44.629Z,29.47
2019-05-07T00:31:46.203Z,30.47
2019-05-07T00:37:02.701Z,25.10
2019-05-07T00:42:08.745Z,29.67
2019-05-07T00:47:10.203Z,24.73
2019-05-07T00:52:14.046Z,24.37
2019-05-07T00:57:15.051Z,28.93
2019-05-07T01:02:16.526Z,26.30
2019-05-07T01:07:19.198Z,24.40
2019-05-07T01:12:22.333Z,33.07
2019-05-07T01:17:24.031Z,35.73
2019-05-07T01:22:25.918Z,29.40
2019-05-07T01:27:27.692Z,27.40
2019-05-07T01:32:42.420Z,26.90
2019-05-07T01:37:43.587Z,26.67
2019-05-07T01:42:45.074Z,27.60
2019-05-07T01:47:46.699Z,20.60
2019-05-07T01:52:48.174Z,24.13
2019-05-07T01:57:49.659Z,22.80
2019-05-07T02:02:55.867Z,25.03
2019-05-07T02:07:59.252Z,23.10
2019-05-07T02:13:02.315Z,25.77
2019-05-07T02:18:04.158Z,21.13
2019-05-07T02:23:05.778Z,24.43
2019-05-07T02:28:07.250Z,26.13
2019-05-07T02:33:08.723Z,25.37
2019-05-07T02:38:13.879Z,24.87
2019-05-07T02:43:16.013Z,21.63
2019-05-07T02:48:19.436Z,25.43
2019-05-07T02:53:22.954Z,29.63
2019-05-07T02:58:24.473Z,25.40
2019-05-07T03:03:26.050Z,20.53
2019-05-07T03:08:27.923Z,22.07
2019-05-07T03:13:29.501Z,24.33
2019-05-07T03:18:33.404Z,30.00
2019-05-07T03:23:42.645Z,25.60
2019-05-07T03:28:53.610Z,31.93
2019-05-07T03:33:56.543Z,21.80
2019-05-07T03:38:58.480Z,27.13
2019-05-07T03:44:03.749Z,24.30
2019-05-07T03:49:07.305Z,23.00
2019-05-07T03:54:09.884Z,24.60
2019-05-07T03:59:13.027Z,22.00
2019-05-07T04:04:14.610Z,26.10
2019-05-07T04:09:16.089Z,21.93
2019-05-07T04:14:17.659Z,26.73
2019-05-07T04:19:19.218Z,27.87
2019-05-07T04:24:23.603Z,30.37
2019-05-07T04:29:25.206Z,25.27
2019-05-07T04:34:45.051Z,26.93
2019-05-07T04:39:48.443Z,34.57
2019-05-07T04:44:53.733Z,23.37
2019-05-07T04:49:53.910Z,21.67
2019-05-07T04:54:55.605Z,25.17
2019-05-07T04:59:58.260Z,24.90
2019-05-07T05:05:02.535Z,22.20
2019-05-07T05:10:06.483Z,22.27
2019-05-07T05:15:08.663Z,23.93
2019-05-07T05:20:13.112Z,23.00
2019-05-07T05:25:15.318Z,26.87
2019-05-07T05:30:21.974Z,22.20
2019-05-07T05:35:23.655Z,28.50
2019-05-07T05:40:25.244Z,25.20
2019-05-07T05:45:33.496Z,24.33
2019-05-07T05:50:37.351Z,29.47
2019-05-07T05:55:39.530Z,26.33
2019-05-07T06:00:42.286Z,39.70
2019-05-07T06:05:52.254Z,31.23
2019-05-07T06:11:02.187Z,26.20
2019-05-07T06:16:08.414Z,21.53
2019-05-07T06:21:28.505Z,25.37
2019-05-07T06:26:31.898Z,27.90
2019-05-07T06:31:33.503Z,27.53
2019-05-07T06:36:38.042Z,31.73
2019-05-07T06:41:58.370Z,28.07
2019-05-07T06:47:02.310Z,26.87
2019-05-07T06:52:03.540Z,23.60
2019-05-07T06:57:05.428Z,29.20
2019-05-07T07:02:27.205Z,23.97
2019-05-07T07:07:36.559Z,29.20
2019-05-07T07:12:34.723Z,30.27
2019-05-07T07:17:36.606Z,28.07
2019-05-07T07:22:38.201Z,26.57
2019-05-07T07:27:39.845Z,27.47
2019-05-07T07:32:43.274Z,29.43
2019-05-07T07:37:44.852Z,18.67
2019-05-07T07:42:46.494Z,18.13
2019-05-07T07:47:49.169Z,19.77
2019-05-07T07:52:52.989Z,29.67
2019-05-07T07:57:54.378Z,17.47
2019-05-07T08:02:57.859Z,16.93
2019-05-07T08:07:59.349Z,19.30
2019-05-07T08:13:01.984Z,18.87
2019-05-07T08:18:03.959Z,18.83
2019-05-07T08:23:05.647Z,22.10
2019-05-07T08:28:07.182Z,23.00
2019-05-07T08:33:14.604Z,20.07
2019-05-07T08:38:14.243Z,19.37
2019-05-07T08:43:15.746Z,11.07
2019-05-07T08:48:23.101Z,15.60
2019-05-07T08:53:24.588Z,12.60
2019-05-07T08:58:26.170Z,16.10
2019-05-07T09:03:43.317Z,18.10
2019-05-07T09:08:45.212Z,12.47
2019-05-07T09:13:47.913Z,15.27
2019-05-07T09:18:49.479Z,16.03
2019-05-07T09:23:52.328Z,14.60
2019-05-07T09:29:02.663Z,11.87
2019-05-07T09:34:04.618Z,13.93
2019-05-07T09:39:07.316Z,12.03
2019-05-07T09:44:08.874Z,9.80
2019-05-07T09:49:12.023Z,12.73
2019-05-07T09:54:13.789Z,11.37
2019-05-07T09:59:15.428Z,8.40
2019-05-07T10:04:17.199Z,10.50
2019-05-07T10:09:18.779Z,6.83
2019-05-07T10:14:22.383Z,10.63
2019-05-07T10:19:24.767Z,10.83
2019-05-07T10:24:26.471Z,14.87
2019-05-07T10:29:28.287Z,12.20
2019-05-07T10:34:29.905Z,10.93
2019-05-07T10:39:32.529Z,10.57
2019-05-07T10:44:53.353Z,7.70
2019-05-07T10:50:13.651Z,6.67
2019-05-07T10:55:15.933Z,11.97
2019-05-07T11:00:23.619Z,10.57
2019-05-07T11:05:25.174Z,13.07
2019-05-07T11:10:26.856Z,6.63
2019-05-07T11:15:28.538Z,14.30
2019-05-07T11:20:31.981Z,8.70
2019-05-07T11:25:34.011Z,10.47
2019-05-07T11:30:35.727Z,9.80
2019-05-07T11:35:37.276Z,10.37
2019-05-07T11:40:39.055Z,10.20
2019-05-07T11:45:54.610Z,13.47
2019-05-07T11:51:03.274Z,7.50
2019-05-07T11:55:59.786Z,11.70
2019-05-07T12:01:04.482Z,8.87
2019-05-07T12:06:06.045Z,8.27
2019-05-07T12:11:07.984Z,7.80
2019-05-07T12:16:12.078Z,8.93
2019-05-07T12:21:20.627Z,10.63
2019-05-07T12:26:16.633Z,10.37
2019-05-07T12:31:20.043Z,13.63
2019-05-07T12:36:22.739Z,9.00
2019-05-07T12:41:33.760Z,10.33
2019-05-07T12:46:35.963Z,7.53
2019-05-07T12:51:42.741Z,11.73
2019-05-07T12:56:44.339Z,9.90
2019-05-07T13:01:54.106Z,11.40
2019-05-07T13:07:02.489Z,10.73
2019-05-07T13:12:04.792Z,12.23
2019-05-07T13:17:07.446Z,10.63
2019-05-07T13:22:09.220Z,9.47
2019-05-07T13:27:11.003Z,10.93
2019-05-07T13:32:14.514Z,10.70
2019-05-07T13:37:28.013Z,15.07
2019-05-07T13:42:38.209Z,11.93
2019-05-07T13:47:40.598Z,14.63
2019-05-07T13:52:43.623Z,16.57
2019-05-07T13:57:45.287Z,14.17
2019-05-07T14:02:48.175Z,13.70
2019-05-07T14:07:49.958Z,8.97
2019-05-07T14:12:52.207Z,6.93
2019-05-07T14:17:55.056Z,6.30
2019-05-07T14:22:56.891Z,9.87
2019-05-07T14:27:58.923Z,6.07
2019-05-07T14:33:06.119Z,7.33
2019-05-07T14:38:18.824Z,14.27
2019-05-07T14:43:25.232Z,7.97
2019-05-07T14:48:26.815Z,6.27
2019-05-07T14:53:28.567Z,9.27
2019-05-07T14:58:31.870Z,6.77
2019-05-07T15:03:33.847Z,4.83
2019-05-07T15:08:35.838Z,5.77
2019-05-07T15:13:37.987Z,8.73
2019-05-07T15:18:54.174Z,11.43
2019-05-07T15:23:56.344Z,9.30
2019-05-07T15:29:00.085Z,9.90
2019-05-07T15:34:02.975Z,13.03
2019-05-07T15:39:04.969Z,14.63
2019-05-07T15:44:08.480Z,10.40
2019-05-07T15:49:12.387Z,7.23
2019-05-07T15:54:13.597Z,11.23
2019-05-07T15:59:22.343Z,6.17
2019-05-07T16:04:26.056Z,8.00
2019-05-07T16:09:29.633Z,7.07
2019-05-07T16:14:32.127Z,7.97
2019-05-07T16:19:33.974Z,10.10
2019-05-07T16:24:35.485Z,8.13
2019-05-07T16:29:37.084Z,13.50
2019-05-07T16:34:38.806Z,19.87
2019-05-07T16:39:42.118Z,18.57
2019-05-07T16:44:43.819Z,21.20
2019-05-07T16:49:46.428Z,18.87
2019-05-07T16:54:47.932Z,12.67
2019-05-07T16:59:49.578Z,12.40
2019-05-07T17:05:12.163Z,19.03
2019-05-07T17:10:13.960Z,12.07
2019-05-07T17:15:16.449Z,13.77
2019-05-07T17:20:18.930Z,13.97
2019-05-07T17:25:38.585Z,13.90
2019-05-07T17:30:42.099Z,12.50
2019-05-07T17:35:46.092Z,17.50
2019-05-07T17:40:47.654Z,25.37
2019-05-07T17:45:52.059Z,25.70
2019-05-07T17:50:58.725Z,15.80
2019-05-07T17:56:02.109Z,12.17
2019-05-07T18:01:05.627Z,14.13
2019-05-07T18:06:07.502Z,18.73
2019-05-07T18:11:20.232Z,20.10
2019-05-07T18:16:32.624Z,18.93
2019-05-07T18:21:34.379Z,20.33
2019-05-07T18:26:36.167Z,28.27
2019-05-07T18:31:51.548Z,34.57
2019-05-07T18:36:53.237Z,42.30
2019-05-07T18:41:54.715Z,33.63
2019-05-07T18:46:56.290Z,31.87
2019-05-07T18:51:57.768Z,40.97
2019-05-07T18:57:02.339Z,55.30
2019-05-07T19:02:04.987Z,57.57
2019-05-07T19:07:06.879Z,73.40
2019-05-07T19:12:12.888Z,85.20
2019-05-07T19:17:13.974Z,84.87
2019-05-07T19:22:15.555Z,102.47
2019-05-07T19:27:17.206Z,88.63
2019-05-07T19:32:19.100Z,84.13
2019-05-07T19:37:22.353Z,67.20
2019-05-07T19:42:24.056Z,75.70
2019-05-07T19:47:25.636Z,70.53
2019-05-07T19:52:27.101Z,66.10
2019-05-07T19:57:33.496Z,63.10
2019-05-07T20:02:37.065Z,67.13
2019-05-07T20:07:38.768Z,53.33
2019-05-07T20:12:42.864Z,50.57
2019-05-07T20:17:44.511Z,44.60
2019-05-07T20:22:46.331Z,48.37
2019-05-07T20:27:47.854Z,53.07
2019-05-07T20:32:49.572Z,55.23
2019-05-07T20:37:52.078Z,58.27
2019-05-07T20:42:53.797Z,57.60
2019-05-07T20:47:55.281Z,58.83
2019-05-07T20:52:56.754Z,65.47
2019-05-07T20:57:58.341Z,59.70
2019-05-07T21:03:12.560Z,99.70
2019-05-07T21:08:15.744Z,83.97
2019-05-07T21:13:27.427Z,89.17
2019-05-07T21:18:22.952Z,74.43
2019-05-07T21:23:24.126Z,74.50
2019-05-07T21:28:26.095Z,70.43
2019-05-07T21:33:27.706Z,60.57
2019-05-07T21:38:29.322Z,60.83
2019-05-07T21:43:32.674Z,66.87
2019-05-07T21:48:34.378Z,59.43
2019-05-07T21:53:37.758Z,65.37
2019-05-07T21:58:46.939Z,69.70
2019-05-07T22:03:52.388Z,64.60
2019-05-07T22:08:54.832Z,63.00
2019-05-07T22:13:57.720Z,65.93
2019-05-07T22:18:59.335Z,72.47
2019-05-07T22:24:02.796Z,59.63
2019-05-07T22:29:04.334Z,50.43
2019-05-07T22:34:13.786Z,45.97
2019-05-07T22:39:15.405Z,43.37
2019-05-07T22:44:18.776Z,40.83
2019-05-07T22:49:22.727Z,43.47
2019-05-07T22:54:23.730Z,50.10
2019-05-07T22:59:25.469Z,47.50
2019-05-07T23:04:26.948Z,49.67
2019-05-07T23:09:28.566Z,68.43
2019-05-07T23:14:30.147Z,61.63
2019-05-07T23:19:32.714Z,77.27
2019-05-07T23:24:34.334Z,68.80
2019-05-07T23:29:35.808Z,75.47
2019-05-07T23:34:37.287Z,65.80
2019-05-07T23:39:42.381Z,59.93
2019-05-07T23:44:44.198Z,74.93
2019-05-07T23:49:45.719Z,61.70
2019-05-07T23:54:47.196Z,68.40
2019-05-07T23:59:48.663Z,64.17
